createdAt,value
2022-10-05T00:02:21.584Z,64.12
2022-10-05T00:07:25.975Z,62.96
2022-10-05T00:12:30.624Z,62.58
2022-10-05T00:17:35.741Z,60.85
2022-10-05T00:22:38.796Z,59.47
2022-10-05T00:27:42.291Z,59.37
2022-10-05T00:32:47.500Z,60.63
2022-10-05T00:37:54.677Z,65.10
2022-10-05T00:43:14.038Z,65.69
2022-10-05T00:48:26.312Z,68.09
2022-10-05T00:53:42.621Z,71.08
2022-10-05T00:58:56.857Z,73.01
2022-10-05T01:04:09.779Z,72.59
2022-10-05T01:09:19.552Z,73.06
2022-10-05T01:14:28.893Z,74.07
2022-10-05T01:19:59.371Z,73.77
2022-10-05T01:25:16.368Z,73.37
2022-10-05T01:30:23.066Z,74.12
2022-10-05T01:35:38.242Z,74.70
2022-10-05T01:40:53.691Z,74.83
2022-10-05T01:46:03.112Z,73.68
2022-10-05T01:51:17.440Z,75.03
2022-10-05T01:56:27.517Z,74.59
2022-10-05T02:01:39.945Z,75.01
2022-10-05T02:06:46.948Z,74.47
2022-10-05T02:11:56.044Z,74.73
2022-10-05T02:17:06.736Z,75.43
2022-10-05T02:22:15.994Z,75.08
2022-10-05T02:27:26.957Z,74.94
2022-10-05T02:32:37.677Z,74.59
2022-10-05T02:37:50.265Z,74.60
2022-10-05T02:43:02.163Z,75.89
2022-10-05T02:48:12.916Z,75.28
2022-10-05T02:53:26.043Z,75.35
2022-10-05T02:58:35.982Z,76.30
2022-10-05T03:03:44.755Z,76.08
2022-10-05T03:08:52.559Z,75.76
2022-10-05T03:14:05.943Z,75.59
2022-10-05T03:19:25.183Z,76.23
2022-10-05T03:24:42.135Z,76.29
2022-10-05T03:29:55.286Z,77.31
2022-10-05T03:35:07.987Z,76.97
2022-10-05T03:40:24.303Z,77.03
2022-10-05T03:45:32.378Z,76.31
2022-10-05T03:50:45.564Z,76.96
2022-10-05T03:55:55.428Z,77.34
2022-10-05T04:01:03.608Z,77.42
2022-10-05T04:06:14.634Z,79.02
2022-10-05T04:11:22.364Z,78.68
2022-10-05T04:16:29.089Z,78.38
2022-10-05T04:21:42.456Z,78.98
2022-10-05T04:26:51.722Z,78.93
2022-10-05T04:32:09.797Z,78.70
2022-10-05T04:37:21.567Z,77.92
2022-10-05T04:42:32.382Z,77.81
2022-10-05T04:48:05.165Z,77.67
2022-10-05T04:53:18.387Z,78.53
2022-10-05T04:58:38.860Z,79.15
2022-10-05T05:04:00.650Z,78.45
2022-10-05T05:09:53.745Z,80.79
2022-10-05T05:15:13.642Z,80.29
2022-10-05T05:20:23.206Z,78.53
2022-10-05T05:25:38.185Z,78.45
2022-10-05T05:30:47.644Z,77.79
2022-10-05T05:36:09.340Z,78.86
2022-10-05T05:41:19.701Z,78.79
2022-10-05T05:46:51.126Z,77.71
2022-10-05T05:51:55.709Z,78.98
2022-10-05T05:57:11.052Z,77.01
2022-10-05T06:02:21.189Z,77.15
2022-10-05T06:07:30.767Z,76.49
2022-10-05T06:12:42.764Z,76.55
2022-10-05T06:17:52.739Z,76.26
2022-10-05T06:23:00.861Z,77.26
2022-10-05T06:28:12.375Z,75.76
2022-10-05T06:33:42.802Z,74.82
2022-10-05T06:39:20.577Z,74.69
2022-10-05T06:44:31.498Z,73.78
2022-10-05T06:50:10.285Z,73.20
2022-10-05T06:55:26.787Z,71.86
2022-10-05T07:00:37.539Z,70.39
2022-10-05T07:05:56.641Z,69.44
2022-10-05T07:11:08.463Z,68.21
2022-10-05T07:16:25.692Z,67.88
2022-10-05T07:21:39.407Z,68.63
2022-10-05T07:26:48.045Z,66.09
2022-10-05T07:32:02.349Z,64.09
2022-10-05T07:37:28.898Z,60.14
2022-10-05T07:42:51.789Z,58.67
2022-10-05T07:48:06.902Z,64.60
2022-10-05T07:53:19.631Z,62.49
2022-10-05T07:58:29.493Z,62.77
2022-10-05T08:03:52.327Z,58.39
2022-10-05T08:08:59.976Z,60.17
2022-10-05T08:14:15.519Z,60.59
2022-10-05T08:19:24.548Z,58.89
2022-10-05T08:24:40.016Z,59.54
2022-10-05T08:29:51.571Z,59.04
2022-10-05T08:35:03.098Z,59.90
2022-10-05T08:40:31.043Z,58.52
2022-10-05T08:46:03.846Z,61.46
2022-10-05T08:51:32.277Z,61.75
2022-10-05T08:56:44.289Z,61.73
2022-10-05T09:02:09.498Z,61.13
2022-10-05T09:07:36.350Z,64.72
2022-10-05T09:12:55.164Z,62.59
2022-10-05T09:18:25.287Z,61.72
2022-10-05T09:23:38.996Z,60.21
2022-10-05T09:28:57.571Z,60.36
2022-10-05T09:34:26.031Z,61.62
2022-10-05T09:40:11.523Z,63.21
2022-10-05T09:45:41.867Z,62.74
2022-10-05T09:51:00.988Z,62.04
2022-10-05T09:56:49.126Z,62.39
2022-10-05T10:02:16.986Z,63.23
2022-10-05T10:07:50.287Z,62.85
2022-10-05T10:13:14.450Z,62.07
2022-10-05T10:18:41.833Z,60.67
2022-10-05T10:24:14.755Z,59.34
2022-10-05T10:29:48.573Z,60.41
2022-10-05T10:35:21.278Z,61.13
2022-10-05T10:40:37.980Z,61.12
2022-10-05T10:45:56.321Z,58.49
2022-10-05T10:51:14.820Z,59.23
2022-10-05T10:56:40.459Z,59.18
2022-10-05T11:01:53.781Z,58.34
2022-10-05T11:07:28.323Z,58.87
2022-10-05T11:12:58.060Z,58.63
2022-10-05T11:18:11.420Z,59.64
2022-10-05T11:23:39.176Z,58.76
2022-10-05T11:28:58.879Z,60.02
2022-10-05T11:34:49.341Z,58.88
2022-10-05T11:40:11.646Z,56.86
2022-10-05T11:45:21.827Z,53.41
2022-10-05T11:50:33.182Z,53.96
2022-10-05T11:55:43.220Z,54.91
2022-10-05T12:00:54.991Z,53.73
2022-10-05T12:06:19.379Z,52.42
2022-10-05T12:11:44.904Z,50.85
2022-10-05T12:16:54.424Z,51.24
2022-10-05T12:22:04.204Z,47.60
2022-10-05T12:27:16.123Z,47.91
2022-10-05T12:32:25.034Z,47.66
2022-10-05T12:37:43.044Z,46.23
2022-10-05T12:42:56.037Z,46.97
2022-10-05T12:48:29.858Z,48.77
2022-10-05T12:53:48.392Z,47.22
2022-10-05T12:58:59.234Z,46.69
2022-10-05T13:04:17.422Z,47.25
2022-10-05T13:09:29.538Z,46.63
2022-10-05T13:14:55.804Z,47.53
2022-10-05T13:20:03.765Z,46.97
2022-10-05T13:25:21.494Z,48.35
2022-10-05T13:30:26.025Z,48.79
2022-10-05T13:35:44.974Z,48.15
2022-10-05T13:40:54.633Z,48.93
2022-10-05T13:46:07.254Z,48.19
2022-10-05T13:51:17.329Z,47.57
2022-10-05T13:56:24.316Z,47.82
2022-10-05T14:01:41.704Z,49.09
2022-10-05T14:06:45.599Z,46.67
2022-10-05T14:11:50.813Z,49.12
2022-10-05T14:16:57.012Z,53.09
2022-10-05T14:22:03.205Z,54.15
2022-10-05T14:27:21.573Z,56.00
2022-10-05T14:32:27.917Z,56.42
2022-10-05T14:37:34.645Z,55.95
2022-10-05T14:42:47.338Z,57.01
2022-10-05T14:47:54.325Z,53.67
2022-10-05T14:53:17.572Z,55.48
2022-10-05T14:58:43.297Z,55.04
2022-10-05T15:04:02.365Z,55.59
2022-10-05T15:09:27.589Z,54.74
2022-10-05T15:14:32.913Z,55.11
2022-10-05T15:19:52.768Z,57.80
2022-10-05T15:25:04.377Z,58.81
2022-10-05T15:30:13.243Z,58.61
2022-10-05T15:35:38.119Z,58.12
2022-10-05T15:40:45.514Z,57.59
2022-10-05T15:45:57.641Z,58.20
2022-10-05T15:51:08.235Z,59.56
2022-10-05T15:56:22.325Z,60.89
2022-10-05T16:01:44.741Z,59.02
2022-10-05T16:07:09.912Z,58.60
2022-10-05T16:12:26.470Z,62.05
2022-10-05T16:17:48.059Z,62.37
2022-10-05T16:22:59.775Z,62.10
2022-10-05T16:28:19.673Z,64.28
2022-10-05T16:33:29.457Z,65.08
2022-10-05T16:38:44.371Z,65.79
2022-10-05T16:43:55.115Z,66.09
2022-10-05T16:49:10.826Z,66.92
2022-10-05T16:54:19.601Z,67.08
2022-10-05T16:59:54.093Z,67.39
2022-10-05T17:05:13.989Z,67.38
2022-10-05T17:10:41.105Z,66.51
2022-10-05T17:16:03.412Z,67.26
2022-10-05T17:21:15.755Z,67.23
2022-10-05T17:26:41.089Z,66.65
2022-10-05T17:32:09.113Z,65.59
2022-10-05T17:37:35.663Z,67.00
2022-10-05T17:42:58.033Z,68.70
2022-10-05T17:48:03.346Z,69.17
2022-10-05T17:53:39.213Z,68.95
2022-10-05T17:59:06.754Z,69.02
2022-10-05T18:04:38.849Z,69.28
2022-10-05T18:09:56.661Z,69.46
2022-10-05T18:15:21.924Z,69.82
2022-10-05T18:20:33.159Z,70.68
2022-10-05T18:25:45.000Z,72.09
2022-10-05T18:31:10.126Z,71.67
2022-10-05T18:36:28.294Z,71.69
2022-10-05T18:41:48.338Z,72.09
2022-10-05T18:47:00.518Z,72.31
2022-10-05T18:52:12.330Z,72.59
2022-10-05T18:57:41.697Z,73.11
2022-10-05T19:02:52.327Z,74.18
2022-10-05T19:08:03.249Z,73.59
2022-10-05T19:13:22.153Z,72.43
2022-10-05T19:18:58.158Z,68.19
2022-10-05T19:24:15.685Z,66.24
2022-10-05T19:29:33.484Z,64.86
2022-10-05T19:34:54.637Z,64.03
2022-10-05T19:40:07.299Z,64.57
2022-10-05T19:45:19.175Z,64.29
2022-10-05T19:50:28.264Z,65.34
2022-10-05T19:55:37.717Z,64.21
2022-10-05T20:00:42.398Z,65.34
2022-10-05T20:05:48.052Z,64.51
2022-10-05T20:11:12.521Z,64.62
2022-10-05T20:16:46.887Z,64.53
2022-10-05T20:21:52.848Z,64.38
2022-10-05T20:27:05.153Z,64.29
2022-10-05T20:32:10.040Z,64.30
2022-10-05T20:37:16.086Z,64.47
2022-10-05T20:42:20.495Z,64.36
2022-10-05T20:47:23.387Z,63.95
2022-10-05T20:52:27.670Z,64.18
2022-10-05T20:57:31.488Z,64.11
2022-10-05T21:02:34.429Z,63.42
2022-10-05T21:07:38.697Z,63.73
2022-10-05T21:12:42.156Z,63.84
2022-10-05T21:17:45.029Z,63.47
2022-10-05T21:22:49.643Z,64.04
2022-10-05T21:27:52.669Z,63.93
2022-10-05T21:32:55.567Z,63.02
2022-10-05T21:37:59.832Z,62.25
2022-10-05T21:43:03.316Z,62.24
2022-10-05T21:48:06.423Z,62.25
2022-10-05T21:53:14.195Z,62.24
2022-10-05T21:58:18.423Z,61.87
2022-10-05T22:03:21.616Z,62.00
2022-10-05T22:08:28.723Z,61.93
2022-10-05T22:13:42.020Z,62.28
2022-10-05T22:18:45.615Z,61.87
2022-10-05T22:23:50.185Z,62.51
2022-10-05T22:28:55.560Z,63.11
2022-10-05T22:33:58.678Z,63.32
2022-10-05T22:39:03.053Z,63.47
2022-10-05T22:44:06.823Z,63.38
2022-10-05T22:49:10.189Z,64.15
2022-10-05T22:54:14.600Z,64.19
2022-10-05T22:59:17.854Z,64.13
2022-10-05T23:04:20.861Z,64.49
2022-10-05T23:09:25.233Z,64.63
2022-10-05T23:14:29.382Z,65.39
2022-10-05T23:19:32.366Z,65.90
2022-10-05T23:24:36.716Z,65.51
2022-10-05T23:29:39.718Z,65.48
2022-10-05T23:34:42.732Z,65.42
2022-10-05T23:39:47.101Z,65.63
2022-10-05T23:44:50.108Z,65.80
2022-10-05T23:49:53.164Z,65.98
2022-10-05T23:54:57.540Z,66.40
